Historyczne dane pomiarowe

Dodano dane terminowe – wersja testowa.

Dane z okresu 1951-2019

Wersja bazy: 1.34 [2019-03-16, lista zmian], aktualizacja planowana na 2019-04-15

Dane meteo z obszaru Polski uzyskane na podstawie danych udostępnionych przez Instytut Meteorologii i Gospodarki Wodnej – Państwowy Instytut Badawczy.

 

Wybierz Datę:    

       

TemperaturaWilgotnośćZachmurzenieWiatrCiśnienieWidzialnośćZjawiska
 Data    tng td wb rh cc ccl cl cm ch dir g1 g2 mslp ppp      
1999-07-24 00:00:00 14.8--- 10.2 12.274wxwxwx3wx--1020.1 997.1 0.0---wx
1999-07-24 01:00:00 14.6--- 10.1 12.175wxwxwx2wx--1019.9 996.9----wx
1999-07-24 02:00:00 14.4--- 10.1 12.075wxwxwx2wx--1020.1 997.1----wx
1999-07-24 03:00:00 14.1--- 10.0 11.876wxwxwx2wx--1020.6 997.5----wx
1999-07-24 04:00:00 14.2--- 9.9 11.875wxwxwx2wx--1020.8 997.7----wx
1999-07-24 05:00:00 14.2--- 9.3 11.572wxwxwx3wx--1021.1 998.0----wx
1999-07-24 06:00:00 14.5--- 9.2 11.671wxwxwx2wx--1021.5 998.4 0.0---wx
1999-07-24 07:00:00 15.0--- 9.2 11.868wxwxwxwx2wx--1021.7 998.7----wx
1999-07-24 08:00:00 16.0--- 8.9 12.163wxwxwxwxwx4wx--1021.9 998.9----wx
1999-07-24 09:00:00 16.3--- 8.9 12.261wxwxwx4wx--1022.1 999.2----wx
1999-07-24 10:00:00 16.8--- 9.7 12.863wxwxwxwx4wx--1022.1 999.2----wx
1999-07-24 11:00:00 17.0--- 10.3 13.265wxwxwx3wx--1022.1 999.2----wx
1999-07-24 12:00:00 17.8--- 10.9 13.864wxwxwxwx3wx--1021.8 999.0 0.0---wx
1999-07-24 13:00:00 18.2--- 10.8 13.962wxwxwxwx3wx--1021.6 998.8----wx
1999-07-24 14:00:00 18.6--- 11.4 14.463wxwxwxwxwx3wx--1021.4 998.7----wx
1999-07-24 15:00:00 19.1--- 11.6 14.762wxwxwxwxwx4wx--1021.3 998.6----wx
1999-07-24 16:00:00 19.0--- 11.3 14.561wxwxwxwxwx3wx--1021.3 998.6----wx
1999-07-24 17:00:00 18.4--- 11.8 14.565wxwxwxwx3wx--1021.1 998.4----wx
1999-07-24 18:00:00 17.9--- 11.8 14.367wxwxwxwx3wx--1021.4 998.6 0.0---wx
1999-07-24 19:00:00 17.3--- 12.4 14.473wxwxwx3wx--1021.6 998.8----wx
1999-07-24 20:00:00 16.9--- 12.3 14.274wxwxwx3wx--1021.9 999.0----wx
1999-07-24 21:00:00 15.7--- 13.5 14.487wxwxwxwx2wx--1022.1 999.1----wx
1999-07-24 22:00:00 15.0--- 13.3 14.090wxwxwx1wx--1022.1 999.1----wx
1999-07-24 23:00:00 15.1--- 13.4 14.190wxwxwx2wx--1021.7 998.7----wx

 

Źródłem pochodzenia danych jest Instytut Meteorologii i Gospodarki Wodnej – Państwowy Instytut Badawczy. Dane Instytutu Meteorologii i Gospodarki Wodnej – Państwowego Instytutu Badawczego zostały przetworzone.

Dane źródłowe można odnaleźć na stronie https://dane.imgw.pl